sensor_id;sensor_type;location;lat;lon;timestamp;pressure;altitude;pressure_sealevel;temperature;humidity
11448;BME280;43755;49.736;8.734;2023-09-07T00:01:56;98254.38;;;13.85;100.00
11448;BME280;43755;49.736;8.734;2023-09-07T00:03:57;98247.97;;;13.89;100.00
11448;BME280;43755;49.736;8.734;2023-09-07T00:05:58;98244.47;;;13.89;100.00
11448;BME280;43755;49.736;8.734;2023-09-07T00:08:00;98248.38;;;13.82;100.00
11448;BME280;43755;49.736;8.734;2023-09-07T00:10:02;98247.31;;;13.84;100.00
11448;BME280;43755;49.736;8.734;2023-09-07T00:12:05;98240.94;;;13.88;100.00
11448;BME280;43755;49.736;8.734;2023-09-07T00:14:08;98244.91;;;13.97;100.00
11448;BME280;43755;49.736;8.734;2023-09-07T00:16:09;98244.75;;;14.00;100.00
11448;BME280;43755;49.736;8.734;2023-09-07T00:18:10;98247.09;;;14.06;100.00
11448;BME280;43755;49.736;8.734;2023-09-07T00:20:12;98248.66;;;13.93;100.00
11448;BME280;43755;49.736;8.734;2023-09-07T00:22:15;98242.66;;;13.89;100.00
11448;BME280;43755;49.736;8.734;2023-09-07T00:24:16;98247.56;;;13.97;100.00
11448;BME280;43755;49.736;8.734;2023-09-07T00:26:18;98243.03;;;13.99;100.00
11448;BME280;43755;49.736;8.734;2023-09-07T00:28:19;98247.72;;;13.94;100.00
11448;BME280;43755;49.736;8.734;2023-09-07T00:30:22;98235.53;;;13.90;100.00
11448;BME280;43755;49.736;8.734;2023-09-07T00:32:23;98248.19;;;13.85;100.00
11448;BME280;43755;49.736;8.734;2023-09-07T00:34:24;98241.03;;;13.70;100.00
11448;BME280;43755;49.736;8.734;2023-09-07T00:36:25;98243.44;;;13.74;100.00
11448;BME280;43755;49.736;8.734;2023-09-07T00:38:26;98233.53;;;13.78;100.00
11448;BME280;43755;49.736;8.734;2023-09-07T00:40:28;98239.78;;;13.77;100.00
11448;BME280;43755;49.736;8.734;2023-09-07T00:42:30;98242.75;;;13.71;100.00
11448;BME280;43755;49.736;8.734;2023-09-07T00:44:31;98241.16;;;13.67;100.00
11448;BME280;43755;49.736;8.734;2023-09-07T00:46:34;98236.81;;;13.66;100.00
11448;BME280;43755;49.736;8.734;2023-09-07T00:48:36;98230.63;;;13.65;100.00
11448;BME280;43755;49.736;8.734;2023-09-07T00:50:38;98232.97;;;13.71;100.00
11448;BME280;43755;49.736;8.734;2023-09-07T00:52:42;98236.50;;;13.72;100.00
11448;BME280;43755;49.736;8.734;2023-09-07T00:54:44;98235.72;;;13.70;100.00
11448;BME280;43755;49.736;8.734;2023-09-07T00:56:45;98237.75;;;13.65;100.00
11448;BME280;43755;49.736;8.734;2023-09-07T00:58:47;98232.81;;;13.57;100.00
11448;BME280;43755;49.736;8.734;2023-09-07T01:00:49;98239.59;;;13.63;100.00
11448;BME280;43755;49.736;8.734;2023-09-07T01:02:53;98240.47;;;13.63;100.00
11448;BME280;43755;49.736;8.734;2023-09-07T01:04:53;98228.75;;;13.50;100.00
11448;BME280;43755;49.736;8.734;2023-09-07T01:06:57;98231.09;;;13.56;100.00
11448;BME280;43755;49.736;8.734;2023-09-07T01:09:03;98227.44;;;13.59;100.00
11448;BME280;43755;49.736;8.734;2023-09-07T01:11:14;98226.88;;;13.52;100.00
11448;BME280;43755;49.736;8.734;2023-09-07T01:13:16;98228.91;;;13.47;100.00
11448;BME280;43755;49.736;8.734;2023-09-07T01:15:17;98219.22;;;13.46;100.00
11448;BME280;43755;49.736;8.734;2023-09-07T01:17:18;98219.53;;;13.40;100.00
11448;BME280;43755;49.736;8.734;2023-09-07T01:19:23;98213.34;;;13.39;100.00
11448;BME280;43755;49.736;8.734;2023-09-07T01:21:24;98210.94;;;13.35;100.00
11448;BME280;43755;49.736;8.734;2023-09-07T01:23:27;98209.81;;;13.39;100.00
11448;BME280;43755;49.736;8.734;2023-09-07T01:25:29;98198.34;;;13.38;100.00
11448;BME280;43755;49.736;8.734;2023-09-07T01:27:32;98206.63;;;13.49;100.00
11448;BME280;43755;49.736;8.734;2023-09-07T01:29:34;98205.91;;;13.46;100.00
11448;BME280;43755;49.736;8.734;2023-09-07T01:31:38;98202.25;;;13.48;100.00
11448;BME280;43755;49.736;8.734;2023-09-07T01:33:40;98208.03;;;13.57;100.00
11448;BME280;43755;49.736;8.734;2023-09-07T01:35:41;98211.47;;;13.59;100.00
11448;BME280;43755;49.736;8.734;2023-09-07T01:37:43;98216.00;;;13.57;100.00
11448;BME280;43755;49.736;8.734;2023-09-07T01:39:45;98205.53;;;13.53;100.00
11448;BME280;43755;49.736;8.734;2023-09-07T01:41:47;98208.19;;;13.53;100.00
11448;BME280;43755;49.736;8.734;2023-09-07T01:43:48;98202.25;;;13.48;100.00
11448;BME280;43755;49.736;8.734;2023-09-07T01:45:49;98198.88;;;13.45;100.00
11448;BME280;43755;49.736;8.734;2023-09-07T01:47:51;98195.59;;;13.57;100.00
11448;BME280;43755;49.736;8.734;2023-09-07T01:49:52;98192.84;;;13.76;100.00
11448;BME280;43755;49.736;8.734;2023-09-07T01:51:54;98199.16;;;13.73;100.00
11448;BME280;43755;49.736;8.734;2023-09-07T01:53:55;98196.59;;;13.89;100.00
11448;BME280;43755;49.736;8.734;2023-09-07T01:55:58;98197.34;;;13.91;100.00
11448;BME280;43755;49.736;8.734;2023-09-07T01:57:59;98199.38;;;13.86;100.00
11448;BME280;43755;49.736;8.734;2023-09-07T02:00:01;98200.19;;;13.88;100.00
11448;BME280;43755;49.736;8.734;2023-09-07T02:02:05;98197.44;;;13.89;100.00
11448;BME280;43755;49.736;8.734;2023-09-07T02:04:06;98196.97;;;13.81;100.00
11448;BME280;43755;49.736;8.734;2023-09-07T02:06:07;98192.06;;;13.74;100.00
11448;BME280;43755;49.736;8.734;2023-09-07T02:08:09;98200.34;;;13.68;100.00
11448;BME280;43755;49.736;8.734;2023-09-07T02:10:11;98193.56;;;13.62;100.00
11448;BME280;43755;49.736;8.734;2023-09-07T02:12:14;98192.38;;;13.50;100.00
11448;BME280;43755;49.736;8.734;2023-09-07T02:14:16;98187.50;;;13.43;100.00
11448;BME280;43755;49.736;8.734;2023-09-07T02:16:16;98185.16;;;13.37;100.00
11448;BME280;43755;49.736;8.734;2023-09-07T02:18:18;98195.84;;;13.35;100.00
11448;BME280;43755;49.736;8.734;2023-09-07T02:20:20;98185.53;;;13.29;100.00
11448;BME280;43755;49.736;8.734;2023-09-07T02:22:21;98190.13;;;13.26;100.00
11448;BME280;43755;49.736;8.734;2023-09-07T02:24:22;98179.91;;;13.35;100.00
11448;BME280;43755;49.736;8.734;2023-09-07T02:26:24;98181.38;;;13.41;100.00
11448;BME280;43755;49.736;8.734;2023-09-07T02:28:27;98180.13;;;13.48;100.00
11448;BME280;43755;49.736;8.734;2023-09-07T02:30:28;98190.75;;;13.65;100.00
11448;BME280;43755;49.736;8.734;2023-09-07T02:32:30;98180.25;;;13.62;100.00
11448;BME280;43755;49.736;8.734;2023-09-07T02:34:31;98191.06;;;13.59;100.00
11448;BME280;43755;49.736;8.734;2023-09-07T02:36:36;98180.75;;;13.70;100.00
11448;BME280;43755;49.736;8.734;2023-09-07T02:38:37;98184.19;;;13.72;100.00
11448;BME280;43755;49.736;8.734;2023-09-07T02:40:40;98183.31;;;13.72;100.00
11448;BME280;43755;49.736;8.734;2023-09-07T02:42:41;98185.19;;;13.70;100.00
11448;BME280;43755;49.736;8.734;2023-09-07T02:44:44;98181.41;;;13.74;100.00
11448;BME280;43755;49.736;8.734;2023-09-07T02:46:45;98182.28;;;13.74;100.00
11448;BME280;43755;49.736;8.734;2023-09-07T02:48:47;98176.56;;;13.82;100.00
11448;BME280;43755;49.736;8.734;2023-09-07T02:50:48;98186.03;;;13.87;100.00
11448;BME280;43755;49.736;8.734;2023-09-07T02:52:50;98181.38;;;13.91;100.00
11448;BME280;43755;49.736;8.734;2023-09-07T02:54:52;98182.00;;;13.96;100.00
11448;BME280;43755;49.736;8.734;2023-09-07T02:56:53;98186.88;;;13.88;100.00
11448;BME280;43755;49.736;8.734;2023-09-07T02:58:55;98180.63;;;13.89;100.00
11448;BME280;43755;49.736;8.734;2023-09-07T03:00:58;98181.56;;;13.88;100.00
11448;BME280;43755;49.736;8.734;2023-09-07T03:02:59;98182.81;;;13.81;100.00
11448;BME280;43755;49.736;8.734;2023-09-07T03:05:01;98176.38;;;13.85;100.00
11448;BME280;43755;49.736;8.734;2023-09-07T03:07:02;98180.78;;;13.86;100.00
11448;BME280;43755;49.736;8.734;2023-09-07T03:09:04;98186.09;;;13.86;100.00
11448;BME280;43755;49.736;8.734;2023-09-07T03:11:09;98177.44;;;13.82;100.00
11448;BME280;43755;49.736;8.734;2023-09-07T03:13:10;98179.31;;;13.80;100.00
11448;BME280;43755;49.736;8.734;2023-09-07T03:15:11;98175.03;;;13.78;100.00
11448;BME280;43755;49.736;8.734;2023-09-07T03:17:14;98184.19;;;13.72;100.00
11448;BME280;43755;49.736;8.734;2023-09-07T03:19:16;98176.34;;;13.69;100.00
11448;BME280;43755;49.736;8.734;2023-09-07T03:21:17;98181.13;;;13.63;100.00
11448;BME280;43755;49.736;8.734;2023-09-07T03:23:19;98177.53;;;13.64;100.00
11448;BME280;43755;49.736;8.734;2023-09-07T03:25:22;98173.88;;;13.66;100.00
11448;BME280;43755;49.736;8.734;2023-09-07T03:27:24;98174.63;;;13.68;100.00
11448;BME280;43755;49.736;8.734;2023-09-07T03:29:25;98169.16;;;13.71;100.00
11448;BME280;43755;49.736;8.734;2023-09-07T03:31:27;98174.09;;;13.62;100.00
11448;BME280;43755;49.736;8.734;2023-09-07T03:33:29;98178.16;;;13.51;100.00
11448;BME280;43755;49.736;8.734;2023-09-07T03:35:31;98177.84;;;13.58;100.00
11448;BME280;43755;49.736;8.734;2023-09-07T03:37:32;98180.91;;;13.50;100.00
11448;BME280;43755;49.736;8.734;2023-09-07T03:39:34;98186.00;;;13.55;100.00
11448;BME280;43755;49.736;8.734;2023-09-07T03:41:35;98184.28;;;13.53;100.00
11448;BME280;43755;49.736;8.734;2023-09-07T03:43:37;98186.75;;;13.57;100.00
11448;BME280;43755;49.736;8.734;2023-09-07T03:45:38;98184.16;;;13.55;100.00
11448;BME280;43755;49.736;8.734;2023-09-07T03:47:39;98184.16;;;13.55;100.00
11448;BME280;43755;49.736;8.734;2023-09-07T03:49:42;98186.75;;;13.57;100.00
11448;BME280;43755;49.736;8.734;2023-09-07T03:51:42;98186.06;;;13.53;100.00
11448;BME280;43755;49.736;8.734;2023-09-07T03:53:44;98183.34;;;13.55;100.00
11448;BME280;43755;49.736;8.734;2023-09-07T03:55:46;98189.03;;;13.47;100.00
11448;BME280;43755;49.736;8.734;2023-09-07T03:57:46;98190.78;;;13.48;100.00
11448;BME280;43755;49.736;8.734;2023-09-07T03:59:48;98189.59;;;13.53;100.00
11448;BME280;43755;49.736;8.734;2023-09-07T04:01:49;98192.16;;;13.55;100.00
11448;BME280;43755;49.736;8.734;2023-09-07T04:03:51;98189.97;;;13.46;100.00
11448;BME280;43755;49.736;8.734;2023-09-07T04:05:53;98186.38;;;13.47;100.00
11448;BME280;43755;49.736;8.734;2023-09-07T04:07:55;98187.63;;;13.40;100.00
11448;BME280;43755;49.736;8.734;2023-09-07T04:09:57;98185.59;;;13.28;100.00
11448;BME280;43755;49.736;8.734;2023-09-07T04:11:58;98184.19;;;13.21;100.00
11448;BME280;43755;49.736;8.734;2023-09-07T04:14:00;98185.97;;;13.20;100.00
11448;BME280;43755;49.736;8.734;2023-09-07T04:16:02;98179.91;;;13.18;100.00
11448;BME280;43755;49.736;8.734;2023-09-07T04:18:04;98176.63;;;13.13;100.00
11448;BME280;43755;49.736;8.734;2023-09-07T04:20:06;98182.97;;;13.09;100.00
11448;BME280;43755;49.736;8.734;2023-09-07T04:22:10;98184.19;;;13.02;100.00
11448;BME280;43755;49.736;8.734;2023-09-07T04:24:10;98190.47;;;13.01;100.00
11448;BME280;43755;49.736;8.734;2023-09-07T04:26:12;98188.81;;;12.98;100.00
11448;BME280;43755;49.736;8.734;2023-09-07T04:28:13;98188.88;;;12.97;100.00
11448;BME280;43755;49.736;8.734;2023-09-07T04:30:14;98191.41;;;13.00;100.00
11448;BME280;43755;49.736;8.734;2023-09-07T04:32:16;98192.50;;;12.96;100.00
11448;BME280;43755;49.736;8.734;2023-09-07T04:34:16;98195.63;;;13.04;100.00
11448;BME280;43755;49.736;8.734;2023-09-07T04:36:18;98197.03;;;13.11;100.00
11448;BME280;43755;49.736;8.734;2023-09-07T04:38:21;98197.88;;;13.13;100.00
11448;BME280;43755;49.736;8.734;2023-09-07T04:40:23;98202.88;;;13.19;100.00
11448;BME280;43755;49.736;8.734;2023-09-07T04:42:25;98206.63;;;13.32;100.00
11448;BME280;43755;49.736;8.734;2023-09-07T04:44:26;98205.53;;;13.36;100.00
11448;BME280;43755;49.736;8.734;2023-09-07T04:46:28;98205.53;;;13.36;100.00
11448;BME280;43755;49.736;8.734;2023-09-07T04:48:29;98208.41;;;13.32;100.00
11448;BME280;43755;49.736;8.734;2023-09-07T04:50:30;98209.19;;;13.17;100.00
11448;BME280;43755;49.736;8.734;2023-09-07T04:52:31;98207.47;;;13.16;100.00
11448;BME280;43755;49.736;8.734;2023-09-07T04:54:34;98210.75;;;13.21;100.00
11448;BME280;43755;49.736;8.734;2023-09-07T04:56:35;98204.66;;;13.19;100.00
11448;BME280;43755;49.736;8.734;2023-09-07T04:58:37;98202.22;;;13.14;100.00
11448;BME280;43755;49.736;8.734;2023-09-07T05:00:37;98206.81;;;13.10;100.00
11448;BME280;43755;49.736;8.734;2023-09-07T05:02:39;98198.03;;;13.08;100.00
11448;BME280;43755;49.736;8.734;2023-09-07T05:04:42;98209.53;;;13.09;100.00
11448;BME280;43755;49.736;8.734;2023-09-07T05:06:44;98212.28;;;13.07;100.00
11448;BME280;43755;49.736;8.734;2023-09-07T05:08:44;98203.66;;;13.02;100.00
11448;BME280;43755;49.736;8.734;2023-09-07T05:10:47;98207.97;;;13.05;100.00
11448;BME280;43755;49.736;8.734;2023-09-07T05:12:48;98199.22;;;13.03;100.00
11448;BME280;43755;49.736;8.734;2023-09-07T05:14:49;98200.06;;;13.03;100.00
11448;BME280;43755;49.736;8.734;2023-09-07T05:16:51;98202.09;;;12.98;100.00
11448;BME280;43755;49.736;8.734;2023-09-07T05:18:52;98204.06;;;12.95;100.00
11448;BME280;43755;49.736;8.734;2023-09-07T05:20:54;98214.75;;;12.93;100.00
11448;BME280;43755;49.736;8.734;2023-09-07T05:22:55;98214.09;;;12.88;100.00
11448;BME280;43755;49.736;8.734;2023-09-07T05:24:59;98220.13;;;12.92;100.00
11448;BME280;43755;49.736;8.734;2023-09-07T05:27:02;98219.25;;;12.91;100.00
11448;BME280;43755;49.736;8.734;2023-09-07T05:29:03;98215.91;;;12.88;100.00
11448;BME280;43755;49.736;8.734;2023-09-07T05:31:05;98222.06;;;12.88;100.00
11448;BME280;43755;49.736;8.734;2023-09-07T05:33:06;98229.13;;;12.89;100.00
11448;BME280;43755;49.736;8.734;2023-09-07T05:35:08;98228.88;;;12.94;100.00
11448;BME280;43755;49.736;8.734;2023-09-07T05:37:10;98225.94;;;13.00;100.00
11448;BME280;43755;49.736;8.734;2023-09-07T05:39:12;98224.53;;;13.10;100.00
11448;BME280;43755;49.736;8.734;2023-09-07T05:41:13;98222.41;;;13.18;100.00
11448;BME280;43755;49.736;8.734;2023-09-07T05:43:16;98227.41;;;13.24;100.00
11448;BME280;43755;49.736;8.734;2023-09-07T05:45:17;98224.22;;;13.35;100.00
11448;BME280;43755;49.736;8.734;2023-09-07T05:47:19;98230.22;;;13.38;100.00
11448;BME280;43755;49.736;8.734;2023-09-07T05:49:19;98233.91;;;13.36;100.00
11448;BME280;43755;49.736;8.734;2023-09-07T05:51:20;98230.22;;;13.38;100.00
11448;BME280;43755;49.736;8.734;2023-09-07T05:53:22;98229.66;;;13.49;100.00
11448;BME280;43755;49.736;8.734;2023-09-07T05:55:24;98223.72;;;13.61;100.00
11448;BME280;43755;49.736;8.734;2023-09-07T05:57:26;98224.91;;;13.73;100.00
11448;BME280;43755;49.736;8.734;2023-09-07T05:59:28;98238.75;;;13.79;100.00
11448;BME280;43755;49.736;8.734;2023-09-07T06:01:30;98223.31;;;13.86;100.00
11448;BME280;43755;49.736;8.734;2023-09-07T06:03:33;98230.53;;;14.01;100.00
11448;BME280;43755;49.736;8.734;2023-09-07T06:05:35;98226.34;;;14.13;100.00
11448;BME280;43755;49.736;8.734;2023-09-07T06:07:38;98227.63;;;14.21;100.00
11448;BME280;43755;49.736;8.734;2023-09-07T06:09:40;98231.13;;;14.39;100.00
11448;BME280;43755;49.736;8.734;2023-09-07T06:11:41;98234.41;;;14.44;100.00
11448;BME280;43755;49.736;8.734;2023-09-07T06:13:42;98233.06;;;14.53;100.00
11448;BME280;43755;49.736;8.734;2023-09-07T06:15:45;98234.84;;;14.68;100.00
11448;BME280;43755;49.736;8.734;2023-09-07T06:17:46;98235.91;;;14.81;100.00
11448;BME280;43755;49.736;8.734;2023-09-07T06:19:47;98233.34;;;14.95;100.00
11448;BME280;43755;49.736;8.734;2023-09-07T06:21:48;98233.97;;;15.14;100.00
11448;BME280;43755;49.736;8.734;2023-09-07T06:23:50;98230.38;;;15.31;100.00
11448;BME280;43755;49.736;8.734;2023-09-07T06:25:51;98241.66;;;15.50;100.00
11448;BME280;43755;49.736;8.734;2023-09-07T06:27:52;98238.25;;;15.78;100.00
11448;BME280;43755;49.736;8.734;2023-09-07T06:29:53;98246.00;;;15.97;100.00
11448;BME280;43755;49.736;8.734;2023-09-07T06:31:56;98243.06;;;16.16;100.00
11448;BME280;43755;49.736;8.734;2023-09-07T06:33:58;98239.47;;;16.31;100.00
11448;BME280;43755;49.736;8.734;2023-09-07T06:36:00;98247.66;;;16.42;100.00
11448;BME280;43755;49.736;8.734;2023-09-07T06:38:02;98251.16;;;16.57;100.00
11448;BME280;43755;49.736;8.734;2023-09-07T06:40:04;98243.19;;;16.71;100.00
11448;BME280;43755;49.736;8.734;2023-09-07T06:42:06;98245.38;;;16.78;100.00
11448;BME280;43755;49.736;8.734;2023-09-07T06:44:06;98246.97;;;16.81;100.00
11448;BME280;43755;49.736;8.734;2023-09-07T06:46:09;98251.47;;;16.81;100.00
11448;BME280;43755;49.736;8.734;2023-09-07T06:48:11;98251.53;;;16.93;100.00
11448;BME280;43755;49.736;8.734;2023-09-07T06:50:13;98250.28;;;16.99;100.00
11448;BME280;43755;49.736;8.734;2023-09-07T06:52:15;98256.66;;;17.10;100.00
11448;BME280;43755;49.736;8.734;2023-09-07T06:54:15;98252.72;;;17.16;100.00
11448;BME280;43755;49.736;8.734;2023-09-07T06:56:17;98260.25;;;17.24;100.00
11448;BME280;43755;49.736;8.734;2023-09-07T06:58:18;98254.50;;;17.30;100.00
11448;BME280;43755;49.736;8.734;2023-09-07T07:00:20;98256.78;;;17.36;100.00
11448;BME280;43755;49.736;8.734;2023-09-07T07:02:21;98253.78;;;17.40;100.00
11448;BME280;43755;49.736;8.734;2023-09-07T07:04:24;98264.53;;;17.53;100.00
11448;BME280;43755;49.736;8.734;2023-09-07T07:06:25;98257.56;;;17.50;100.00
11448;BME280;43755;49.736;8.734;2023-09-07T07:08:26;98256.28;;;17.56;100.00
11448;BME280;43755;49.736;8.734;2023-09-07T07:10:28;98265.16;;;17.71;100.00
11448;BME280;43755;49.736;8.734;2023-09-07T07:12:29;98258.72;;;17.73;100.00
11448;BME280;43755;49.736;8.734;2023-09-07T07:14:34;98268.81;;;17.82;100.00
11448;BME280;43755;49.736;8.734;2023-09-07T07:16:36;98271.63;;;17.93;100.00
11448;BME280;43755;49.736;8.734;2023-09-07T07:18:37;98266.91;;;17.97;100.00
11448;BME280;43755;49.736;8.734;2023-09-07T07:20:42;98274.09;;;18.09;100.00
11448;BME280;43755;49.736;8.734;2023-09-07T07:22:44;98273.91;;;18.12;100.00
11448;BME280;43755;49.736;8.734;2023-09-07T07:24:46;98272.81;;;18.15;100.00
11448;BME280;43755;49.736;8.734;2023-09-07T07:26:47;98278.59;;;18.21;100.00
11448;BME280;43755;49.736;8.734;2023-09-07T07:28:48;98272.94;;;18.26;100.00
11448;BME280;43755;49.736;8.734;2023-09-07T07:30:49;98270.69;;;18.32;100.00
11448;BME280;43755;49.736;8.734;2023-09-07T07:32:52;98270.38;;;18.37;100.00
11448;BME280;43755;49.736;8.734;2023-09-07T07:34:53;98275.94;;;18.47;100.00
11448;BME280;43755;49.736;8.734;2023-09-07T07:36:56;98276.56;;;18.50;100.00
11448;BME280;43755;49.736;8.734;2023-09-07T07:38:58;98276.16;;;18.56;100.00
11448;BME280;43755;49.736;8.734;2023-09-07T07:40:59;98272.19;;;18.62;100.00
11448;BME280;43755;49.736;8.734;2023-09-07T07:43:00;98274.13;;;18.72;100.00
11448;BME280;43755;49.736;8.734;2023-09-07T07:45:04;98265.75;;;18.77;100.00
11448;BME280;43755;49.736;8.734;2023-09-07T07:47:05;98267.56;;;18.89;100.00
11448;BME280;43755;49.736;8.734;2023-09-07T07:49:06;98265.59;;;18.91;100.00
11448;BME280;43755;49.736;8.734;2023-09-07T07:51:09;98261.63;;;18.97;100.00
11448;BME280;43755;49.736;8.734;2023-09-07T07:53:12;98261.94;;;19.05;100.00
11448;BME280;43755;49.736;8.734;2023-09-07T07:55:12;98258.69;;;19.12;100.00
11448;BME280;43755;49.736;8.734;2023-09-07T07:57:14;98258.75;;;19.23;100.00
11448;BME280;43755;49.736;8.734;2023-09-07T07:59:15;98260.84;;;19.20;100.00
11448;BME280;43755;49.736;8.734;2023-09-07T08:01:18;98258.88;;;19.22;100.00
11448;BME280;43755;49.736;8.734;2023-09-07T08:03:20;98264.34;;;19.20;100.00
11448;BME280;43755;49.736;8.734;2023-09-07T08:05:21;98261.50;;;19.35;100.00
11448;BME280;43755;49.736;8.734;2023-09-07T08:07:23;98260.09;;;19.42;100.00
11448;BME280;43755;49.736;8.734;2023-09-07T08:09:24;98258.91;;;19.46;100.00
11448;BME280;43755;49.736;8.734;2023-09-07T08:11:26;98269.28;;;19.50;100.00
11448;BME280;43755;49.736;8.734;2023-09-07T08:13:27;98263.63;;;19.55;100.00
11448;BME280;43755;49.736;8.734;2023-09-07T08:15:29;98269.84;;;19.55;100.00
11448;BME280;43755;49.736;8.734;2023-09-07T08:17:31;98272.69;;;19.65;100.00
11448;BME280;43755;49.736;8.734;2023-09-07T08:19:33;98277.81;;;19.68;100.00
11448;BME280;43755;49.736;8.734;2023-09-07T08:21:33;98266.50;;;19.76;100.00
11448;BME280;43755;49.736;8.734;2023-09-07T08:23:35;98270.66;;;19.80;100.00
11448;BME280;43755;49.736;8.734;2023-09-07T08:25:38;98268.84;;;19.91;100.00
11448;BME280;43755;49.736;8.734;2023-09-07T08:27:45;98269.72;;;19.92;100.00
11448;BME280;43755;49.736;8.734;2023-09-07T08:29:47;98264.13;;;19.95;100.00
11448;BME280;43755;49.736;8.734;2023-09-07T08:31:51;98275.38;;;20.00;100.00
11448;BME280;43755;49.736;8.734;2023-09-07T08:33:52;98273.44;;;20.02;100.00
11448;BME280;43755;49.736;8.734;2023-09-07T08:35:56;98268.19;;;20.12;100.00
11448;BME280;43755;49.736;8.734;2023-09-07T08:37:56;98279.69;;;20.14;100.00
11448;BME280;43755;49.736;8.734;2023-09-07T08:39:58;98275.53;;;20.21;100.00
11448;BME280;43755;49.736;8.734;2023-09-07T08:42:01;98280.56;;;20.25;100.00
11448;BME280;43755;49.736;8.734;2023-09-07T08:44:04;98276.16;;;20.24;100.00
11448;BME280;43755;49.736;8.734;2023-09-07T08:46:13;98275.91;;;20.27;100.00
11448;BME280;43755;49.736;8.734;2023-09-07T08:48:17;98276.06;;;20.26;100.00
11448;BME280;43755;49.736;8.734;2023-09-07T08:50:20;98283.25;;;20.25;100.00
11448;BME280;43755;49.736;8.734;2023-09-07T08:52:24;98278.91;;;20.35;100.00
11448;BME280;43755;49.736;8.734;2023-09-07T08:54:26;98282.69;;;20.44;100.00
11448;BME280;43755;49.736;8.734;2023-09-07T08:56:26;98279.03;;;20.56;100.00
11448;BME280;43755;49.736;8.734;2023-09-07T08:58:29;98282.47;;;20.58;100.00
11448;BME280;43755;49.736;8.734;2023-09-07T09:00:32;98283.34;;;20.59;100.00
11448;BME280;43755;49.736;8.734;2023-09-07T09:02:33;98272.09;;;20.65;100.00
11448;BME280;43755;49.736;8.734;2023-09-07T09:04:37;98271.50;;;20.72;100.00
11448;BME280;43755;49.736;8.734;2023-09-07T09:06:39;98271.72;;;20.80;100.00
11448;BME280;43755;49.736;8.734;2023-09-07T09:08:43;98274.91;;;20.97;100.00
11448;BME280;43755;49.736;8.734;2023-09-07T09:10:45;98273.56;;;21.02;100.00
11448;BME280;43755;49.736;8.734;2023-09-07T09:12:47;98271.72;;;21.03;100.00
11448;BME280;43755;49.736;8.734;2023-09-07T09:14:49;98279.78;;;21.14;100.00
11448;BME280;43755;49.736;8.734;2023-09-07T09:16:51;98281.50;;;21.15;100.00
11448;BME280;43755;49.736;8.734;2023-09-07T09:18:54;98280.19;;;21.20;100.00
11448;BME280;43755;49.736;8.734;2023-09-07T09:20:56;98276.34;;;21.34;100.00
11448;BME280;43755;49.736;8.734;2023-09-07T09:22:59;98278.28;;;21.43;99.12
11448;BME280;43755;49.736;8.734;2023-09-07T09:25:02;98281.56;;;21.47;100.00
11448;BME280;43755;49.736;8.734;2023-09-07T09:27:04;98272.41;;;21.49;100.00
11448;BME280;43755;49.736;8.734;2023-09-07T09:29:06;98270.53;;;21.61;100.00
11448;BME280;43755;49.736;8.734;2023-09-07T09:31:09;98277.22;;;21.67;95.15
11448;BME280;43755;49.736;8.734;2023-09-07T09:33:12;98274.28;;;21.70;97.36
11448;BME280;43755;49.736;8.734;2023-09-07T09:35:16;98266.88;;;21.83;97.04
11448;BME280;43755;49.736;8.734;2023-09-07T09:37:17;98268.44;;;21.96;96.61
11448;BME280;43755;49.736;8.734;2023-09-07T09:39:22;98267.66;;;22.05;98.49
11448;BME280;43755;49.736;8.734;2023-09-07T09:41:24;98256.16;;;22.03;95.43
11448;BME280;43755;49.736;8.734;2023-09-07T09:43:26;98265.94;;;22.04;96.50
11448;BME280;43755;49.736;8.734;2023-09-07T09:45:28;98260.50;;;22.16;100.00
11448;BME280;43755;49.736;8.734;2023-09-07T09:47:31;98254.44;;;22.23;96.23
11448;BME280;43755;49.736;8.734;2023-09-07T09:49:33;98256.66;;;22.39;95.21
11448;BME280;43755;49.736;8.734;2023-09-07T09:51:35;98260.91;;;22.32;91.77
11448;BME280;43755;49.736;8.734;2023-09-07T09:53:37;98253.69;;;22.32;94.79
11448;BME280;43755;49.736;8.734;2023-09-07T09:55:39;98250.91;;;22.43;96.28
11448;BME280;43755;49.736;8.734;2023-09-07T09:57:41;98257.28;;;22.42;92.49
11448;BME280;43755;49.736;8.734;2023-09-07T09:59:42;98254.22;;;22.57;89.01
11448;BME280;43755;49.736;8.734;2023-09-07T10:03:56;98250.09;;;22.53;88.44
11448;BME280;43755;49.736;8.734;2023-09-07T10:06:07;98255.50;;;22.62;91.04
11448;BME280;43755;49.736;8.734;2023-09-07T10:08:11;98249.00;;;22.65;87.75
11448;BME280;43755;49.736;8.734;2023-09-07T10:10:13;98238.03;;;22.77;86.09
11448;BME280;43755;49.736;8.734;2023-09-07T10:12:15;98236.28;;;23.07;86.44
11448;BME280;43755;49.736;8.734;2023-09-07T10:14:16;98234.63;;;23.35;78.74
11448;BME280;43755;49.736;8.734;2023-09-07T10:16:17;98232.25;;;23.51;85.15
11448;BME280;43755;49.736;8.734;2023-09-07T10:18:19;98237.53;;;23.81;83.29
11448;BME280;43755;49.736;8.734;2023-09-07T10:20:22;98231.41;;;23.98;79.96
11448;BME280;43755;49.736;8.734;2023-09-07T10:22:22;98227.78;;;24.46;80.25
11448;BME280;43755;49.736;8.734;2023-09-07T10:24:26;98228.53;;;24.75;74.96
11448;BME280;43755;49.736;8.734;2023-09-07T10:26:28;98226.81;;;24.84;73.81
11448;BME280;43755;49.736;8.734;2023-09-07T10:28:29;98223.50;;;25.00;70.44
11448;BME280;43755;49.736;8.734;2023-09-07T10:30:31;98228.56;;;25.12;66.68
11448;BME280;43755;49.736;8.734;2023-09-07T10:32:37;98229.38;;;24.85;62.03
11448;BME280;43755;49.736;8.734;2023-09-07T10:34:41;98213.84;;;24.97;68.39
11448;BME280;43755;49.736;8.734;2023-09-07T10:36:45;98218.84;;;25.37;67.05
11448;BME280;43755;49.736;8.734;2023-09-07T10:38:47;98218.66;;;25.66;63.98
11448;BME280;43755;49.736;8.734;2023-09-07T10:40:54;98219.03;;;26.06;60.30